sensor_id;sensor_type;location;lat;lon;timestamp;temperature;humidity
19945;DHT22;10134;50.952;6.930;2023-02-13T00:01:26;10.80;99.90
19945;DHT22;10134;50.952;6.930;2023-02-13T00:03:54;10.80;99.90
19945;DHT22;10134;50.952;6.930;2023-02-13T00:06:21;10.80;99.90
19945;DHT22;10134;50.952;6.930;2023-02-13T00:08:49;10.80;99.90
19945;DHT22;10134;50.952;6.930;2023-02-13T00:11:16;10.80;99.90
19945;DHT22;10134;50.952;6.930;2023-02-13T00:13:43;10.80;99.90
19945;DHT22;10134;50.952;6.930;2023-02-13T00:16:10;10.80;99.90
19945;DHT22;10134;50.952;6.930;2023-02-13T00:18:38;10.80;99.90
19945;DHT22;10134;50.952;6.930;2023-02-13T00:21:08;10.80;99.90
19945;DHT22;10134;50.952;6.930;2023-02-13T00:23:37;10.80;99.90
19945;DHT22;10134;50.952;6.930;2023-02-13T00:26:10;10.80;99.90
19945;DHT22;10134;50.952;6.930;2023-02-13T00:28:42;10.80;99.90
19945;DHT22;10134;50.952;6.930;2023-02-13T00:31:12;10.80;99.90
19945;DHT22;10134;50.952;6.930;2023-02-13T00:33:41;10.80;99.90
19945;DHT22;10134;50.952;6.930;2023-02-13T00:36:16;10.80;99.90
19945;DHT22;10134;50.952;6.930;2023-02-13T00:38:44;10.80;99.90
19945;DHT22;10134;50.952;6.930;2023-02-13T00:41:12;10.80;99.90
19945;DHT22;10134;50.952;6.930;2023-02-13T00:43:40;10.80;99.90
19945;DHT22;10134;50.952;6.930;2023-02-13T00:46:07;10.80;99.90
19945;DHT22;10134;50.952;6.930;2023-02-13T00:48:35;10.80;99.90
19945;DHT22;10134;50.952;6.930;2023-02-13T00:51:05;10.80;99.90
19945;DHT22;10134;50.952;6.930;2023-02-13T00:53:33;10.70;99.90
19945;DHT22;10134;50.952;6.930;2023-02-13T00:56:01;10.70;99.90
19945;DHT22;10134;50.952;6.930;2023-02-13T00:58:28;10.70;99.90
19945;DHT22;10134;50.952;6.930;2023-02-13T01:00:57;10.80;99.90
19945;DHT22;10134;50.952;6.930;2023-02-13T01:03:26;10.70;99.90
19945;DHT22;10134;50.952;6.930;2023-02-13T01:05:55;10.80;99.90
19945;DHT22;10134;50.952;6.930;2023-02-13T01:08:23;10.70;99.90
19945;DHT22;10134;50.952;6.930;2023-02-13T01:10:50;10.70;99.90
19945;DHT22;10134;50.952;6.930;2023-02-13T01:13:17;10.70;99.90
19945;DHT22;10134;50.952;6.930;2023-02-13T01:15:46;10.70;99.90
19945;DHT22;10134;50.952;6.930;2023-02-13T01:18:15;10.70;99.90
19945;DHT22;10134;50.952;6.930;2023-02-13T01:20:43;10.70;99.90
19945;DHT22;10134;50.952;6.930;2023-02-13T01:23:11;10.70;99.90
19945;DHT22;10134;50.952;6.930;2023-02-13T01:25:42;10.60;99.90
19945;DHT22;10134;50.952;6.930;2023-02-13T01:28:10;10.60;99.90
19945;DHT22;10134;50.952;6.930;2023-02-13T01:30:37;10.60;99.90
19945;DHT22;10134;50.952;6.930;2023-02-13T01:33:05;10.60;99.90
19945;DHT22;10134;50.952;6.930;2023-02-13T01:35:32;10.70;99.90
19945;DHT22;10134;50.952;6.930;2023-02-13T01:37:59;10.70;99.90
19945;DHT22;10134;50.952;6.930;2023-02-13T01:40:27;10.70;99.90
19945;DHT22;10134;50.952;6.930;2023-02-13T01:42:56;10.70;99.90
19945;DHT22;10134;50.952;6.930;2023-02-13T01:45:29;10.70;99.90
19945;DHT22;10134;50.952;6.930;2023-02-13T01:48:02;10.70;99.90
19945;DHT22;10134;50.952;6.930;2023-02-13T01:50:46;10.70;99.90
19945;DHT22;10134;50.952;6.930;2023-02-13T01:53:27;10.60;99.90
19945;DHT22;10134;50.952;6.930;2023-02-13T01:55:58;10.60;99.90
19945;DHT22;10134;50.952;6.930;2023-02-13T01:58:31;10.60;99.90
19945;DHT22;10134;50.952;6.930;2023-02-13T02:01:00;10.60;99.90
19945;DHT22;10134;50.952;6.930;2023-02-13T02:03:44;10.60;99.90
19945;DHT22;10134;50.952;6.930;2023-02-13T02:06:22;10.70;99.90
19945;DHT22;10134;50.952;6.930;2023-02-13T02:08:52;10.60;99.90
19945;DHT22;10134;50.952;6.930;2023-02-13T02:11:41;10.60;99.90
19945;DHT22;10134;50.952;6.930;2023-02-13T02:14:11;10.60;99.90
19945;DHT22;10134;50.952;6.930;2023-02-13T02:16:41;10.60;99.90
19945;DHT22;10134;50.952;6.930;2023-02-13T02:19:18;10.60;99.90
19945;DHT22;10134;50.952;6.930;2023-02-13T02:22:15;10.60;99.90
19945;DHT22;10134;50.952;6.930;2023-02-13T02:28:14;10.60;99.90
19945;DHT22;10134;50.952;6.930;2023-02-13T02:36:47;10.60;99.90
19945;DHT22;10134;50.952;6.930;2023-02-13T02:42:31;10.60;99.90
19945;DHT22;10134;50.952;6.930;2023-02-13T02:47:43;10.50;99.90
19945;DHT22;10134;50.952;6.930;2023-02-13T02:56:22;10.50;99.90
19945;DHT22;10134;50.952;6.930;2023-02-13T02:59:04;10.50;99.90
19945;DHT22;10134;50.952;6.930;2023-02-13T03:01:53;10.50;99.90
19945;DHT22;10134;50.952;6.930;2023-02-13T03:04:47;10.50;99.90
19945;DHT22;10134;50.952;6.930;2023-02-13T03:07:34;10.50;99.90
19945;DHT22;10134;50.952;6.930;2023-02-13T03:10:10;10.50;99.90
19945;DHT22;10134;50.952;6.930;2023-02-13T03:13:03;10.50;99.90
19945;DHT22;10134;50.952;6.930;2023-02-13T03:15:52;10.50;99.90
19945;DHT22;10134;50.952;6.930;2023-02-13T03:18:42;10.40;99.90
19945;DHT22;10134;50.952;6.930;2023-02-13T03:27:14;10.50;99.90
19945;DHT22;10134;50.952;6.930;2023-02-13T03:44:27;10.40;99.90
19945;DHT22;10134;50.952;6.930;2023-02-13T03:46:59;10.40;99.90
19945;DHT22;10134;50.952;6.930;2023-02-13T03:55:13;10.40;99.90
19945;DHT22;10134;50.952;6.930;2023-02-13T03:58:08;10.40;99.90
19945;DHT22;10134;50.952;6.930;2023-02-13T04:00:58;10.40;99.90
19945;DHT22;10134;50.952;6.930;2023-02-13T04:06:15;10.40;99.90
19945;DHT22;10134;50.952;6.930;2023-02-13T04:08:43;10.40;99.90
19945;DHT22;10134;50.952;6.930;2023-02-13T04:11:20;10.40;99.90
19945;DHT22;10134;50.952;6.930;2023-02-13T04:16:58;10.40;99.90
19945;DHT22;10134;50.952;6.930;2023-02-13T04:19:29;10.40;99.90
19945;DHT22;10134;50.952;6.930;2023-02-13T04:21:59;10.40;99.90
19945;DHT22;10134;50.952;6.930;2023-02-13T04:24:27;10.30;99.90
19945;DHT22;10134;50.952;6.930;2023-02-13T04:26:54;10.30;99.90
19945;DHT22;10134;50.952;6.930;2023-02-13T04:29:23;10.20;99.90
19945;DHT22;10134;50.952;6.930;2023-02-13T04:31:51;10.20;99.90
19945;DHT22;10134;50.952;6.930;2023-02-13T04:34:19;10.20;99.90
19945;DHT22;10134;50.952;6.930;2023-02-13T04:36:46;10.20;99.90
19945;DHT22;10134;50.952;6.930;2023-02-13T04:39:14;10.20;99.90
19945;DHT22;10134;50.952;6.930;2023-02-13T04:41:41;10.20;99.90
19945;DHT22;10134;50.952;6.930;2023-02-13T04:44:08;10.10;99.90
19945;DHT22;10134;50.952;6.930;2023-02-13T04:46:35;10.20;99.90
19945;DHT22;10134;50.952;6.930;2023-02-13T04:49:03;10.10;99.90
19945;DHT22;10134;50.952;6.930;2023-02-13T04:51:30;10.10;99.90
19945;DHT22;10134;50.952;6.930;2023-02-13T04:53:57;10.10;99.90
19945;DHT22;10134;50.952;6.930;2023-02-13T04:56:25;10.00;99.90
19945;DHT22;10134;50.952;6.930;2023-02-13T04:58:53;10.00;99.90
19945;DHT22;10134;50.952;6.930;2023-02-13T05:01:21;10.00;99.90
19945;DHT22;10134;50.952;6.930;2023-02-13T05:03:48;10.00;99.90
19945;DHT22;10134;50.952;6.930;2023-02-13T05:06:16;10.00;99.90
19945;DHT22;10134;50.952;6.930;2023-02-13T05:08:43;9.90;99.90
19945;DHT22;10134;50.952;6.930;2023-02-13T05:11:10;9.90;99.90
19945;DHT22;10134;50.952;6.930;2023-02-13T05:13:38;9.90;99.90
19945;DHT22;10134;50.952;6.930;2023-02-13T05:16:05;9.80;99.90
19945;DHT22;10134;50.952;6.930;2023-02-13T05:18:32;9.80;99.90
19945;DHT22;10134;50.952;6.930;2023-02-13T05:21:00;9.80;99.90
19945;DHT22;10134;50.952;6.930;2023-02-13T05:23:45;9.70;99.90
19945;DHT22;10134;50.952;6.930;2023-02-13T05:26:12;9.70;99.90
19945;DHT22;10134;50.952;6.930;2023-02-13T05:28:40;9.60;99.90
19945;DHT22;10134;50.952;6.930;2023-02-13T05:31:25;9.60;99.90
19945;DHT22;10134;50.952;6.930;2023-02-13T05:33:53;9.60;99.90
19945;DHT22;10134;50.952;6.930;2023-02-13T05:36:20;9.60;99.90
19945;DHT22;10134;50.952;6.930;2023-02-13T05:38:48;9.60;99.90
19945;DHT22;10134;50.952;6.930;2023-02-13T05:41:15;9.50;99.90
19945;DHT22;10134;50.952;6.930;2023-02-13T05:43:42;9.50;99.90
19945;DHT22;10134;50.952;6.930;2023-02-13T05:46:10;9.50;99.90
19945;DHT22;10134;50.952;6.930;2023-02-13T05:48:37;9.40;99.90
19945;DHT22;10134;50.952;6.930;2023-02-13T05:51:05;9.40;99.90
19945;DHT22;10134;50.952;6.930;2023-02-13T05:53:32;9.40;99.90
19945;DHT22;10134;50.952;6.930;2023-02-13T05:56:06;9.40;99.90
19945;DHT22;10134;50.952;6.930;2023-02-13T05:58:33;9.30;99.90
19945;DHT22;10134;50.952;6.930;2023-02-13T06:01:01;9.30;99.90
19945;DHT22;10134;50.952;6.930;2023-02-13T06:03:29;9.30;99.90
19945;DHT22;10134;50.952;6.930;2023-02-13T06:05:58;9.20;99.90
19945;DHT22;10134;50.952;6.930;2023-02-13T06:08:25;9.20;99.90
19945;DHT22;10134;50.952;6.930;2023-02-13T06:10:55;9.20;99.90
19945;DHT22;10134;50.952;6.930;2023-02-13T06:13:22;9.20;99.90
19945;DHT22;10134;50.952;6.930;2023-02-13T06:15:50;9.20;99.90
19945;DHT22;10134;50.952;6.930;2023-02-13T06:18:17;9.20;99.90
19945;DHT22;10134;50.952;6.930;2023-02-13T06:20:45;9.10;99.90
19945;DHT22;10134;50.952;6.930;2023-02-13T06:23:12;9.20;99.90
19945;DHT22;10134;50.952;6.930;2023-02-13T06:25:40;9.10;99.90
19945;DHT22;10134;50.952;6.930;2023-02-13T06:28:08;9.10;99.90
19945;DHT22;10134;50.952;6.930;2023-02-13T06:30:35;9.10;99.90
19945;DHT22;10134;50.952;6.930;2023-02-13T06:33:02;9.20;99.90
19945;DHT22;10134;50.952;6.930;2023-02-13T06:35:30;9.10;99.90
19945;DHT22;10134;50.952;6.930;2023-02-13T06:37:57;9.10;99.90
19945;DHT22;10134;50.952;6.930;2023-02-13T06:40:24;9.00;99.90
19945;DHT22;10134;50.952;6.930;2023-02-13T06:42:51;9.00;99.90
19945;DHT22;10134;50.952;6.930;2023-02-13T06:45:19;9.00;99.90
19945;DHT22;10134;50.952;6.930;2023-02-13T06:47:47;9.00;99.90
19945;DHT22;10134;50.952;6.930;2023-02-13T06:50:15;9.00;99.90
19945;DHT22;10134;50.952;6.930;2023-02-13T06:52:49;9.00;99.90
19945;DHT22;10134;50.952;6.930;2023-02-13T06:55:17;9.00;99.90
19945;DHT22;10134;50.952;6.930;2023-02-13T06:57:45;8.90;99.90
19945;DHT22;10134;50.952;6.930;2023-02-13T07:00:14;8.90;99.90
19945;DHT22;10134;50.952;6.930;2023-02-13T07:02:43;9.00;99.90
19945;DHT22;10134;50.952;6.930;2023-02-13T07:05:11;8.90;99.90
19945;DHT22;10134;50.952;6.930;2023-02-13T07:07:40;8.90;99.90
19945;DHT22;10134;50.952;6.930;2023-02-13T07:10:21;8.90;99.90
19945;DHT22;10134;50.952;6.930;2023-02-13T07:12:48;8.80;99.90
19945;DHT22;10134;50.952;6.930;2023-02-13T07:15:32;8.90;99.90
19945;DHT22;10134;50.952;6.930;2023-02-13T07:18:02;8.90;99.90
19945;DHT22;10134;50.952;6.930;2023-02-13T07:20:30;8.80;99.90
19945;DHT22;10134;50.952;6.930;2023-02-13T07:23:02;8.90;99.90
19945;DHT22;10134;50.952;6.930;2023-02-13T07:25:30;8.90;99.90
19945;DHT22;10134;50.952;6.930;2023-02-13T07:28:05;8.90;99.90
19945;DHT22;10134;50.952;6.930;2023-02-13T07:30:33;8.90;99.90
19945;DHT22;10134;50.952;6.930;2023-02-13T07:33:01;8.90;99.90
19945;DHT22;10134;50.952;6.930;2023-02-13T07:35:29;8.90;99.90
19945;DHT22;10134;50.952;6.930;2023-02-13T07:37:57;8.90;99.90
19945;DHT22;10134;50.952;6.930;2023-02-13T07:40:26;8.90;99.90
19945;DHT22;10134;50.952;6.930;2023-02-13T07:42:55;8.90;99.90
19945;DHT22;10134;50.952;6.930;2023-02-13T07:45:22;8.80;99.90
19945;DHT22;10134;50.952;6.930;2023-02-13T07:47:49;8.80;99.90
19945;DHT22;10134;50.952;6.930;2023-02-13T07:50:17;8.90;99.90
19945;DHT22;10134;50.952;6.930;2023-02-13T07:52:54;8.90;99.90
19945;DHT22;10134;50.952;6.930;2023-02-13T07:55:22;8.90;99.90
19945;DHT22;10134;50.952;6.930;2023-02-13T07:57:50;8.90;99.90
19945;DHT22;10134;50.952;6.930;2023-02-13T08:00:18;8.90;99.90
19945;DHT22;10134;50.952;6.930;2023-02-13T08:02:46;8.90;99.90
19945;DHT22;10134;50.952;6.930;2023-02-13T08:05:14;8.90;99.90
19945;DHT22;10134;50.952;6.930;2023-02-13T08:07:41;8.90;99.90
19945;DHT22;10134;50.952;6.930;2023-02-13T08:10:11;9.00;99.90
19945;DHT22;10134;50.952;6.930;2023-02-13T08:12:57;9.00;99.90
19945;DHT22;10134;50.952;6.930;2023-02-13T08:15:24;9.00;99.90
19945;DHT22;10134;50.952;6.930;2023-02-13T08:17:52;9.00;99.90
19945;DHT22;10134;50.952;6.930;2023-02-13T08:20:19;9.00;99.90
19945;DHT22;10134;50.952;6.930;2023-02-13T08:22:47;9.00;99.90
19945;DHT22;10134;50.952;6.930;2023-02-13T08:25:14;9.10;99.90
19945;DHT22;10134;50.952;6.930;2023-02-13T08:27:41;9.10;99.90
19945;DHT22;10134;50.952;6.930;2023-02-13T08:30:09;9.10;99.90
19945;DHT22;10134;50.952;6.930;2023-02-13T08:32:36;9.10;99.90
19945;DHT22;10134;50.952;6.930;2023-02-13T08:35:20;9.10;99.90
19945;DHT22;10134;50.952;6.930;2023-02-13T08:37:48;9.20;99.90
19945;DHT22;10134;50.952;6.930;2023-02-13T08:40:16;9.20;99.90
19945;DHT22;10134;50.952;6.930;2023-02-13T08:42:43;9.20;99.90
19945;DHT22;10134;50.952;6.930;2023-02-13T08:45:10;9.30;99.90
19945;DHT22;10134;50.952;6.930;2023-02-13T08:47:38;9.30;99.90
19945;DHT22;10134;50.952;6.930;2023-02-13T08:50:06;9.30;99.90
19945;DHT22;10134;50.952;6.930;2023-02-13T08:52:37;9.30;99.90
19945;DHT22;10134;50.952;6.930;2023-02-13T08:55:04;9.40;99.90
19945;DHT22;10134;50.952;6.930;2023-02-13T08:57:32;9.40;99.90
19945;DHT22;10134;50.952;6.930;2023-02-13T08:59:59;9.50;99.90
19945;DHT22;10134;50.952;6.930;2023-02-13T09:02:26;9.50;99.90
19945;DHT22;10134;50.952;6.930;2023-02-13T09:04:54;9.50;99.90
19945;DHT22;10134;50.952;6.930;2023-02-13T09:07:21;9.60;99.90
19945;DHT22;10134;50.952;6.930;2023-02-13T09:09:48;9.60;99.90
19945;DHT22;10134;50.952;6.930;2023-02-13T09:12:16;9.60;99.90
19945;DHT22;10134;50.952;6.930;2023-02-13T09:14:43;9.70;99.90
19945;DHT22;10134;50.952;6.930;2023-02-13T09:17:10;9.70;99.90
19945;DHT22;10134;50.952;6.930;2023-02-13T09:19:37;9.80;99.90
19945;DHT22;10134;50.952;6.930;2023-02-13T09:22:05;9.80;99.90
19945;DHT22;10134;50.952;6.930;2023-02-13T09:24:32;9.80;99.90
19945;DHT22;10134;50.952;6.930;2023-02-13T09:26:59;9.90;99.90
19945;DHT22;10134;50.952;6.930;2023-02-13T09:29:26;9.90;99.90
19945;DHT22;10134;50.952;6.930;2023-02-13T09:31:57;9.90;99.90
19945;DHT22;10134;50.952;6.930;2023-02-13T09:34:25;9.90;99.90
19945;DHT22;10134;50.952;6.930;2023-02-13T09:36:53;9.90;99.90
19945;DHT22;10134;50.952;6.930;2023-02-13T09:39:21;10.00;99.90
19945;DHT22;10134;50.952;6.930;2023-02-13T09:41:49;10.00;99.90
19945;DHT22;10134;50.952;6.930;2023-02-13T09:44:54;10.00;99.90
19945;DHT22;10134;50.952;6.930;2023-02-13T09:47:36;10.00;99.90
19945;DHT22;10134;50.952;6.930;2023-02-13T09:52:45;10.10;99.90
19945;DHT22;10134;50.952;6.930;2023-02-13T09:55:23;10.20;99.90
19945;DHT22;10134;50.952;6.930;2023-02-13T09:58:06;10.20;99.90
19945;DHT22;10134;50.952;6.930;2023-02-13T10:00:41;10.20;99.90
19945;DHT22;10134;50.952;6.930;2023-02-13T10:03:33;10.30;99.90
19945;DHT22;10134;50.952;6.930;2023-02-13T10:06:09;10.30;99.90
19945;DHT22;10134;50.952;6.930;2023-02-13T10:09:12;10.40;99.90
19945;DHT22;10134;50.952;6.930;2023-02-13T10:12:10;10.40;99.90
19945;DHT22;10134;50.952;6.930;2023-02-13T10:17:31;10.50;99.90
19945;DHT22;10134;50.952;6.930;2023-02-13T10:20:06;10.50;99.90
19945;DHT22;10134;50.952;6.930;2023-02-13T10:22:46;10.50;99.90
19945;DHT22;10134;50.952;6.930;2023-02-13T10:25:26;10.60;99.90
19945;DHT22;10134;50.952;6.930;2023-02-13T10:28:14;10.60;99.90
19945;DHT22;10134;50.952;6.930;2023-02-13T10:30:53;10.70;99.90
19945;DHT22;10134;50.952;6.930;2023-02-13T10:33:29;10.70;99.90
19945;DHT22;10134;50.952;6.930;2023-02-13T10:42:07;10.80;99.90
19945;DHT22;10134;50.952;6.930;2023-02-13T10:44:49;10.90;99.90
19945;DHT22;10134;50.952;6.930;2023-02-13T10:48:00;10.90;99.90
19945;DHT22;10134;50.952;6.930;2023-02-13T10:55:55;11.00;99.90
19945;DHT22;10134;50.952;6.930;2023-02-13T11:04:25;11.20;99.90
19945;DHT22;10134;50.952;6.930;2023-02-13T11:07:03;11.20;99.90
19945;DHT22;10134;50.952;6.930;2023-02-13T11:09:37;11.30;99.90
19945;DHT22;10134;50.952;6.930;2023-02-13T11:12:27;11.30;99.90
19945;DHT22;10134;50.952;6.930;2023-02-13T11:15:00;11.40;99.90
19945;DHT22;10134;50.952;6.930;2023-02-13T11:17:39;11.40;99.90
19945;DHT22;10134;50.952;6.930;2023-02-13T11:22:49;11.50;99.90
19945;DHT22;10134;50.952;6.930;2023-02-13T11:25:20;11.60;99.90
19945;DHT22;10134;50.952;6.930;2023-02-13T11:27:49;11.60;99.90
19945;DHT22;10134;50.952;6.930;2023-02-13T11:33:00;11.70;99.90
19945;DHT22;10134;50.952;6.930;2023-02-13T11:35:31;11.70;99.90
19945;DHT22;10134;50.952;6.930;2023-02-13T11:38:24;11.80;99.90
19945;DHT22;10134;50.952;6.930;2023-02-13T11:41:09;11.80;99.90
19945;DHT22;10134;50.952;6.930;2023-02-13T11:43:49;11.90;99.90
19945;DHT22;10134;50.952;6.930;2023-02-13T11:46:24;11.90;99.90
19945;DHT22;10134;50.952;6.930;2023-02-13T11:48:57;12.00;99.90
19945;DHT22;10134;50.952;6.930;2023-02-13T11:51:46;12.10;99.90
19945;DHT22;10134;50.952;6.930;2023-02-13T11:54:28;12.10;99.90
19945;DHT22;10134;50.952;6.930;2023-02-13T11:56:59;12.20;99.90
19945;DHT22;10134;50.952;6.930;2023-02-13T11:59:38;12.20;99.90
19945;DHT22;10134;50.952;6.930;2023-02-13T12:04:43;12.40;99.90
19945;DHT22;10134;50.952;6.930;2023-02-13T12:07:21;12.40;99.90
19945;DHT22;10134;50.952;6.930;2023-02-13T12:09:57;12.50;99.90
19945;DHT22;10134;50.952;6.930;2023-02-13T12:12:30;12.50;99.90
19945;DHT22;10134;50.952;6.930;2023-02-13T12:15:01;12.60;99.90
19945;DHT22;10134;50.952;6.930;2023-02-13T12:17:30;12.70;99.90
19945;DHT22;10134;50.952;6.930;2023-02-13T12:19:59;12.70;99.90
19945;DHT22;10134;50.952;6.930;2023-02-13T12:25:52;12.80;99.90
19945;DHT22;10134;50.952;6.930;2023-02-13T12:31:08;12.90;99.90
19945;DHT22;10134;50.952;6.930;2023-02-13T12:34:06;13.00;99.90
19945;DHT22;10134;50.952;6.930;2023-02-13T12:39:36;13.10;99.90
19945;DHT22;10134;50.952;6.930;2023-02-13T12:42:36;13.10;99.90
19945;DHT22;10134;50.952;6.930;2023-02-13T12:45:20;13.20;99.90
19945;DHT22;10134;50.952;6.930;2023-02-13T12:59:27;13.40;99.90
19945;DHT22;10134;50.952;6.930;2023-02-13T13:05:26;13.50;99.90
19945;DHT22;10134;50.952;6.930;2023-02-13T13:08:11;13.50;99.90
19945;DHT22;10134;50.952;6.930;2023-02-13T13:13:41;13.60;99.90
19945;DHT22;10134;50.952;6.930;2023-02-13T13:19:17;13.70;99.90
19945;DHT22;10134;50.952;6.930;2023-02-13T13:24:32;13.70;99.90
19945;DHT22;10134;50.952;6.930;2023-02-13T13:27:02;13.80;99.90
19945;DHT22;10134;50.952;6.930;2023-02-13T13:30:03;13.80;99.90
19945;DHT22;10134;50.952;6.930;2023-02-13T13:32:32;13.90;99.90
19945;DHT22;10134;50.952;6.930;2023-02-13T13:35:02;13.90;99.90
19945;DHT22;10134;50.952;6.930;2023-02-13T13:37:36;13.90;99.60
19945;DHT22;10134;50.952;6.930;2023-02-13T13:40:37;14.00;99.40
19945;DHT22;10134;50.952;6.930;2023-02-13T13:43:17;14.00;99.50
19945;DHT22;10134;50.952;6.930;2023-02-13T13:51:23;14.20;99.00
19945;DHT22;10134;50.952;6.930;2023-02-13T14:07:40;14.30;96.70
19945;DHT22;10134;50.952;6.930;2023-02-13T14:13:00;14.40;95.70
19945;DHT22;10134;50.952;6.930;2023-02-13T14:20:42;14.40;94.90
19945;DHT22;10134;50.952;6.930;2023-02-13T14:34:04;14.50;94.30
19945;DHT22;10134;50.952;6.930;2023-02-13T14:36:35;14.50;93.90
19945;DHT22;10134;50.952;6.930;2023-02-13T14:39:15;14.50;93.80
19945;DHT22;10134;50.952;6.930;2023-02-13T14:41:58;14.50;93.70
19945;DHT22;10134;50.952;6.930;2023-02-13T14:46:53;14.50;93.70
19945;DHT22;10134;50.952;6.930;2023-02-13T14:49:35;14.50;94.10
19945;DHT22;10134;50.952;6.930;2023-02-13T14:52:06;14.50;93.90
19945;DHT22;10134;50.952;6.930;2023-02-13T14:54:42;14.50;93.70
19945;DHT22;10134;50.952;6.930;2023-02-13T14:59:54;14.50;93.90
19945;DHT22;10134;50.952;6.930;2023-02-13T15:02:23;14.50;93.70
19945;DHT22;10134;50.952;6.930;2023-02-13T15:04:57;14.50;93.30
19945;DHT22;10134;50.952;6.930;2023-02-13T15:07:28;14.50;93.10
19945;DHT22;10134;50.952;6.930;2023-02-13T15:10:27;14.50;93.20
19945;DHT22;10134;50.952;6.930;2023-02-13T15:12:59;14.50;92.90
19945;DHT22;10134;50.952;6.930;2023-02-13T15:15:34;14.50;92.90
19945;DHT22;10134;50.952;6.930;2023-02-13T15:18:28;14.40;92.80
19945;DHT22;10134;50.952;6.930;2023-02-13T15:20:57;14.40;92.90
19945;DHT22;10134;50.952;6.930;2023-02-13T15:23:29;14.40;92.50
19945;DHT22;10134;50.952;6.930;2023-02-13T15:26:02;14.40;92.40
19945;DHT22;10134;50.952;6.930;2023-02-13T15:28:32;14.40;92.40
19945;DHT22;10134;50.952;6.930;2023-02-13T15:31:03;14.40;92.60
19945;DHT22;10134;50.952;6.930;2023-02-13T15:33:33;14.40;92.60
19945;DHT22;10134;50.952;6.930;2023-02-13T15:36:05;14.40;92.90
19945;DHT22;10134;50.952;6.930;2023-02-13T15:38:35;14.40;92.40
19945;DHT22;10134;50.952;6.930;2023-02-13T15:43:35;14.40;92.40
19945;DHT22;10134;50.952;6.930;2023-02-13T15:46:07;14.40;92.60
19945;DHT22;10134;50.952;6.930;2023-02-13T15:48:44;14.30;92.20
19945;DHT22;10134;50.952;6.930;2023-02-13T15:51:29;14.30;92.40
19945;DHT22;10134;50.952;6.930;2023-02-13T15:53:59;14.30;92.40
19945;DHT22;10134;50.952;6.930;2023-02-13T15:56:29;14.30;92.60
19945;DHT22;10134;50.952;6.930;2023-02-13T15:58:59;14.30;92.60
19945;DHT22;10134;50.952;6.930;2023-02-13T16:01:27;14.30;92.60
19945;DHT22;10134;50.952;6.930;2023-02-13T16:04:05;14.30;92.70
19945;DHT22;10134;50.952;6.930;2023-02-13T16:06:33;14.30;92.70
19945;DHT22;10134;50.952;6.930;2023-02-13T16:09:02;14.20;92.70
19945;DHT22;10134;50.952;6.930;2023-02-13T16:11:40;14.20;92.80
19945;DHT22;10134;50.952;6.930;2023-02-13T16:14:24;14.20;92.80
19945;DHT22;10134;50.952;6.930;2023-02-13T16:16:59;14.20;92.60
19945;DHT22;10134;50.952;6.930;2023-02-13T16:19:43;14.10;92.40
19945;DHT22;10134;50.952;6.930;2023-02-13T16:22:33;14.10;92.70
19945;DHT22;10134;50.952;6.930;2023-02-13T16:27:44;14.10;93.40
19945;DHT22;10134;50.952;6.930;2023-02-13T16:38:36;13.90;94.10
19945;DHT22;10134;50.952;6.930;2023-02-13T16:43:48;13.90;94.60
19945;DHT22;10134;50.952;6.930;2023-02-13T16:46:46;13.80;94.60
19945;DHT22;10134;50.952;6.930;2023-02-13T16:49:21;13.80;94.90
19945;DHT22;10134;50.952;6.930;2023-02-13T16:52:07;13.80;95.10
19945;DHT22;10134;50.952;6.930;2023-02-13T17:02:18;13.60;95.80
19945;DHT22;10134;50.952;6.930;2023-02-13T17:07:45;13.60;96.20
19945;DHT22;10134;50.952;6.930;2023-02-13T17:12:45;13.50;96.50
19945;DHT22;10134;50.952;6.930;2023-02-13T17:15:15;13.50;96.60
19945;DHT22;10134;50.952;6.930;2023-02-13T17:17:44;13.40;96.70
19945;DHT22;10134;50.952;6.930;2023-02-13T17:20:20;13.40;96.80
19945;DHT22;10134;50.952;6.930;2023-02-13T17:22:49;13.40;96.90
19945;DHT22;10134;50.952;6.930;2023-02-13T17:25:21;13.30;97.00
19945;DHT22;10134;50.952;6.930;2023-02-13T17:27:51;13.30;97.10
19945;DHT22;10134;50.952;6.930;2023-02-13T17:30:27;13.30;97.20
19945;DHT22;10134;50.952;6.930;2023-02-13T17:33:18;13.20;97.30
19945;DHT22;10134;50.952;6.930;2023-02-13T17:35:47;13.20;97.50
19945;DHT22;10134;50.952;6.930;2023-02-13T17:38:14;13.20;97.70
19945;DHT22;10134;50.952;6.930;2023-02-13T17:40:43;13.10;97.70
19945;DHT22;10134;50.952;6.930;2023-02-13T17:43:12;13.10;97.90
19945;DHT22;10134;50.952;6.930;2023-02-13T17:45:40;13.10;97.90
19945;DHT22;10134;50.952;6.930;2023-02-13T17:48:07;13.10;98.00
19945;DHT22;10134;50.952;6.930;2023-02-13T17:50:35;13.00;98.00
19945;DHT22;10134;50.952;6.930;2023-02-13T17:53:23;13.00;98.10
19945;DHT22;10134;50.952;6.930;2023-02-13T17:55:51;12.90;98.30
19945;DHT22;10134;50.952;6.930;2023-02-13T17:58:18;12.90;98.40
19945;DHT22;10134;50.952;6.930;2023-02-13T18:00:46;12.90;98.90
19945;DHT22;10134;50.952;6.930;2023-02-13T18:03:13;12.80;99.00
19945;DHT22;10134;50.952;6.930;2023-02-13T18:05:40;12.80;98.80
19945;DHT22;10134;50.952;6.930;2023-02-13T18:08:08;12.80;98.90
19945;DHT22;10134;50.952;6.930;2023-02-13T18:10:39;12.80;99.00
19945;DHT22;10134;50.952;6.930;2023-02-13T18:13:06;12.70;99.10
19945;DHT22;10134;50.952;6.930;2023-02-13T18:15:38;12.70;99.10
19945;DHT22;10134;50.952;6.930;2023-02-13T18:18:06;12.70;99.20
19945;DHT22;10134;50.952;6.930;2023-02-13T18:20:34;12.70;99.20
19945;DHT22;10134;50.952;6.930;2023-02-13T18:23:01;12.60;99.20
19945;DHT22;10134;50.952;6.930;2023-02-13T18:25:28;12.60;99.20
19945;DHT22;10134;50.952;6.930;2023-02-13T18:27:56;12.50;99.20
19945;DHT22;10134;50.952;6.930;2023-02-13T18:30:23;12.50;99.20
19945;DHT22;10134;50.952;6.930;2023-02-13T18:32:53;12.50;99.20
19945;DHT22;10134;50.952;6.930;2023-02-13T18:35:22;12.50;99.60
19945;DHT22;10134;50.952;6.930;2023-02-13T18:37:50;12.50;99.30
19945;DHT22;10134;50.952;6.930;2023-02-13T18:40:17;12.40;99.20
19945;DHT22;10134;50.952;6.930;2023-02-13T18:42:45;12.40;99.30
19945;DHT22;10134;50.952;6.930;2023-02-13T18:45:12;12.40;99.40
19945;DHT22;10134;50.952;6.930;2023-02-13T18:47:40;12.30;99.50
19945;DHT22;10134;50.952;6.930;2023-02-13T18:50:08;12.30;99.50
19945;DHT22;10134;50.952;6.930;2023-02-13T18:52:36;12.30;99.60
19945;DHT22;10134;50.952;6.930;2023-02-13T18:55:03;12.30;99.80
19945;DHT22;10134;50.952;6.930;2023-02-13T18:57:33;12.20;99.80
19945;DHT22;10134;50.952;6.930;2023-02-13T19:00:00;12.20;99.90
19945;DHT22;10134;50.952;6.930;2023-02-13T19:02:28;12.20;99.90
19945;DHT22;10134;50.952;6.930;2023-02-13T19:04:58;12.20;99.90
19945;DHT22;10134;50.952;6.930;2023-02-13T19:07:26;12.10;99.90
19945;DHT22;10134;50.952;6.930;2023-02-13T19:09:53;12.10;99.90
19945;DHT22;10134;50.952;6.930;2023-02-13T19:12:20;12.10;99.90
19945;DHT22;10134;50.952;6.930;2023-02-13T19:14:48;12.10;99.90
19945;DHT22;10134;50.952;6.930;2023-02-13T19:17:15;12.00;99.90